Weather at Danbury Municipal Airport

Public forecast

Using degrees Fahrenheit for public forecast. Weather courtesy of forecast.io.

Current aviation weather report (METAR) for Danbury Municipal Airport

Retrieved 2020/09/29 22:53 UTC (33 minutes ago):

KDXR 292253Z 16006KT 8SM -RA SCT013 BKN038 OVC080 21/19 A2981 RMK AO2 SLP092 P0005 T02060194

Closest aviation forecast (TAF) to Danbury Municipal Airport

Closest forecast is Igor I Sikorsky Memorial Airport, 20.3 nm (37.7 km) SE. Retrieved 2020/09/29 18:42 UTC (5 hours ago):

TAF KBDR 291741Z 2918/3018 19009KT P6SM VCSH BKN012 OVC040 FM292200 16008KT 6SM SHRA BR BKN008 OVC015 FM300300 16014G20KT 3SM SHRA BR BKN008 OVC010 FM300700 16018G28KT 3SM +SHRA BR OVC005 WS020/19050KT FM301200 23014G24KT 5SM SHRA BR SCT005 OVC010 FM301600 26016G26KT P6SM SCT040 BKN250